sensor_id;sensor_type;location;lat;lon;timestamp;P1;durP1;ratioP1;P2;durP2;ratioP2
26106;SDS011;13866;50.748;12.630;2022-09-30T00:02:20;4.53;;;4.43;;
26106;SDS011;13866;50.748;12.630;2022-09-30T00:04:46;4.87;;;4.60;;
26106;SDS011;13866;50.748;12.630;2022-09-30T00:07:11;5.33;;;5.13;;
26106;SDS011;13866;50.748;12.630;2022-09-30T00:09:37;4.37;;;4.30;;
26106;SDS011;13866;50.748;12.630;2022-09-30T00:12:02;5.30;;;4.80;;
26106;SDS011;13866;50.748;12.630;2022-09-30T00:14:28;4.80;;;4.47;;
26106;SDS011;13866;50.748;12.630;2022-09-30T00:16:54;4.83;;;4.43;;
26106;SDS011;13866;50.748;12.630;2022-09-30T00:19:20;4.67;;;4.37;;
26106;SDS011;13866;50.748;12.630;2022-09-30T00:21:45;4.03;;;3.93;;
26106;SDS011;13866;50.748;12.630;2022-09-30T00:24:11;17.13;;;5.50;;
26106;SDS011;13866;50.748;12.630;2022-09-30T00:26:36;7.00;;;5.27;;
26106;SDS011;13866;50.748;12.630;2022-09-30T00:29:02;6.00;;;5.77;;
26106;SDS011;13866;50.748;12.630;2022-09-30T00:31:29;12.47;;;4.97;;
26106;SDS011;13866;50.748;12.630;2022-09-30T00:33:56;4.40;;;4.40;;
26106;SDS011;13866;50.748;12.630;2022-09-30T00:36:32;5.40;;;5.10;;
26106;SDS011;13866;50.748;12.630;2022-09-30T00:38:59;5.60;;;5.30;;
26106;SDS011;13866;50.748;12.630;2022-09-30T00:41:24;5.77;;;5.47;;
26106;SDS011;13866;50.748;12.630;2022-09-30T00:43:51;4.87;;;4.70;;
26106;SDS011;13866;50.748;12.630;2022-09-30T00:46:37;6.10;;;5.77;;
26106;SDS011;13866;50.748;12.630;2022-09-30T00:49:05;6.00;;;5.70;;
26106;SDS011;13866;50.748;12.630;2022-09-30T00:51:38;5.73;;;5.40;;
26106;SDS011;13866;50.748;12.630;2022-09-30T00:54:14;5.07;;;4.77;;
26106;SDS011;13866;50.748;12.630;2022-09-30T00:56:43;5.30;;;5.10;;
26106;SDS011;13866;50.748;12.630;2022-09-30T00:59:18;8.87;;;4.73;;
26106;SDS011;13866;50.748;12.630;2022-09-30T01:01:50;5.07;;;4.77;;
26106;SDS011;13866;50.748;12.630;2022-09-30T01:04:19;4.50;;;4.40;;
26106;SDS011;13866;50.748;12.630;2022-09-30T01:06:47;5.47;;;5.20;;
26106;SDS011;13866;50.748;12.630;2022-09-30T01:09:13;4.60;;;4.47;;
26106;SDS011;13866;50.748;12.630;2022-09-30T01:11:39;7.37;;;5.43;;
26106;SDS011;13866;50.748;12.630;2022-09-30T01:14:07;5.30;;;5.00;;
26106;SDS011;13866;50.748;12.630;2022-09-30T01:22:17;5.90;;;4.43;;
26106;SDS011;13866;50.748;12.630;2022-09-30T01:25:10;4.60;;;4.50;;
26106;SDS011;13866;50.748;12.630;2022-09-30T01:30:56;4.37;;;4.27;;
26106;SDS011;13866;50.748;12.630;2022-09-30T01:36:17;5.60;;;4.20;;
26106;SDS011;13866;50.748;12.630;2022-09-30T01:41:41;5.67;;;4.93;;
26106;SDS011;13866;50.748;12.630;2022-09-30T01:47:00;4.50;;;3.93;;
26106;SDS011;13866;50.748;12.630;2022-09-30T01:49:56;3.80;;;3.70;;
26106;SDS011;13866;50.748;12.630;2022-09-30T01:52:31;4.20;;;4.20;;
26106;SDS011;13866;50.748;12.630;2022-09-30T01:58:25;6.63;;;4.43;;
26106;SDS011;13866;50.748;12.630;2022-09-30T02:00:54;2.97;;;2.97;;
26106;SDS011;13866;50.748;12.630;2022-09-30T02:03:36;4.53;;;4.17;;
26106;SDS011;13866;50.748;12.630;2022-09-30T02:06:09;4.27;;;4.17;;
26106;SDS011;13866;50.748;12.630;2022-09-30T02:09:01;3.60;;;3.60;;
26106;SDS011;13866;50.748;12.630;2022-09-30T02:11:38;5.03;;;4.83;;
26106;SDS011;13866;50.748;12.630;2022-09-30T02:16:59;5.07;;;4.67;;
26106;SDS011;13866;50.748;12.630;2022-09-30T02:19:40;4.30;;;4.20;;
26106;SDS011;13866;50.748;12.630;2022-09-30T02:22:17;4.63;;;4.43;;
26106;SDS011;13866;50.748;12.630;2022-09-30T02:24:56;4.60;;;4.40;;
26106;SDS011;13866;50.748;12.630;2022-09-30T02:27:33;4.07;;;3.97;;
26106;SDS011;13866;50.748;12.630;2022-09-30T02:30:05;4.30;;;4.20;;
26106;SDS011;13866;50.748;12.630;2022-09-30T02:32:34;8.80;;;5.03;;
26106;SDS011;13866;50.748;12.630;2022-09-30T02:35:10;4.03;;;3.73;;
26106;SDS011;13866;50.748;12.630;2022-09-30T02:37:43;4.90;;;4.50;;
26106;SDS011;13866;50.748;12.630;2022-09-30T02:40:25;5.20;;;4.10;;
26106;SDS011;13866;50.748;12.630;2022-09-30T02:42:55;4.60;;;4.40;;
26106;SDS011;13866;50.748;12.630;2022-09-30T02:45:21;4.13;;;4.03;;
26106;SDS011;13866;50.748;12.630;2022-09-30T02:47:53;4.03;;;3.83;;
26106;SDS011;13866;50.748;12.630;2022-09-30T02:50:46;4.00;;;3.90;;
26106;SDS011;13866;50.748;12.630;2022-09-30T02:53:28;4.40;;;4.10;;
26106;SDS011;13866;50.748;12.630;2022-09-30T02:56:18;3.93;;;3.83;;
26106;SDS011;13866;50.748;12.630;2022-09-30T02:59:07;7.10;;;4.77;;
26106;SDS011;13866;50.748;12.630;2022-09-30T03:01:33;4.50;;;4.40;;
26106;SDS011;13866;50.748;12.630;2022-09-30T03:04:00;4.00;;;3.87;;
26106;SDS011;13866;50.748;12.630;2022-09-30T03:06:29;3.60;;;3.60;;
26106;SDS011;13866;50.748;12.630;2022-09-30T03:08:56;4.23;;;4.07;;
26106;SDS011;13866;50.748;12.630;2022-09-30T03:11:22;3.53;;;3.47;;
26106;SDS011;13866;50.748;12.630;2022-09-30T03:19:34;5.30;;;5.00;;
26106;SDS011;13866;50.748;12.630;2022-09-30T03:22:20;3.60;;;3.50;;
26106;SDS011;13866;50.748;12.630;2022-09-30T03:28:18;3.73;;;3.63;;
26106;SDS011;13866;50.748;12.630;2022-09-30T03:31:36;4.70;;;4.07;;
26106;SDS011;13866;50.748;12.630;2022-09-30T03:33:47;5.60;;;3.60;;
26106;SDS011;13866;50.748;12.630;2022-09-30T03:39:04;4.23;;;3.90;;
26106;SDS011;13866;50.748;12.630;2022-09-30T03:46:49;5.20;;;5.00;;
26106;SDS011;13866;50.748;12.630;2022-09-30T03:49:22;4.00;;;4.00;;
26106;SDS011;13866;50.748;12.630;2022-09-30T03:51:52;4.20;;;4.00;;
26106;SDS011;13866;50.748;12.630;2022-09-30T03:54:18;5.00;;;4.03;;
26106;SDS011;13866;50.748;12.630;2022-09-30T03:56:44;4.13;;;3.90;;
26106;SDS011;13866;50.748;12.630;2022-09-30T03:59:23;4.27;;;4.17;;
26106;SDS011;13866;50.748;12.630;2022-09-30T04:01:51;3.83;;;3.53;;
26106;SDS011;13866;50.748;12.630;2022-09-30T04:04:17;3.90;;;3.80;;
26106;SDS011;13866;50.748;12.630;2022-09-30T04:06:43;3.70;;;3.70;;
26106;SDS011;13866;50.748;12.630;2022-09-30T04:09:09;3.83;;;3.70;;
26106;SDS011;13866;50.748;12.630;2022-09-30T04:11:35;3.83;;;3.73;;
26106;SDS011;13866;50.748;12.630;2022-09-30T04:14:00;13.03;;;4.00;;
26106;SDS011;13866;50.748;12.630;2022-09-30T04:16:29;5.20;;;5.10;;
26106;SDS011;13866;50.748;12.630;2022-09-30T04:18:55;4.97;;;4.57;;
26106;SDS011;13866;50.748;12.630;2022-09-30T04:21:21;4.50;;;4.23;;
26106;SDS011;13866;50.748;12.630;2022-09-30T04:23:47;5.00;;;4.80;;
26106;SDS011;13866;50.748;12.630;2022-09-30T04:26:14;4.80;;;4.60;;
26106;SDS011;13866;50.748;12.630;2022-09-30T04:28:40;5.73;;;5.07;;
26106;SDS011;13866;50.748;12.630;2022-09-30T04:31:06;4.53;;;4.30;;
26106;SDS011;13866;50.748;12.630;2022-09-30T04:33:32;4.40;;;4.23;;
26106;SDS011;13866;50.748;12.630;2022-09-30T04:35:58;5.50;;;5.20;;
26106;SDS011;13866;50.748;12.630;2022-09-30T04:38:25;8.23;;;4.57;;
26106;SDS011;13866;50.748;12.630;2022-09-30T04:40:51;5.10;;;5.00;;
26106;SDS011;13866;50.748;12.630;2022-09-30T04:43:21;5.17;;;4.77;;
26106;SDS011;13866;50.748;12.630;2022-09-30T04:45:48;7.50;;;4.97;;
26106;SDS011;13866;50.748;12.630;2022-09-30T04:48:15;6.73;;;5.23;;
26106;SDS011;13866;50.748;12.630;2022-09-30T04:50:41;4.07;;;4.00;;
26106;SDS011;13866;50.748;12.630;2022-09-30T04:53:16;4.27;;;4.20;;
26106;SDS011;13866;50.748;12.630;2022-09-30T04:55:43;5.30;;;5.10;;
26106;SDS011;13866;50.748;12.630;2022-09-30T04:58:09;5.40;;;5.00;;
26106;SDS011;13866;50.748;12.630;2022-09-30T05:00:35;4.50;;;4.40;;
26106;SDS011;13866;50.748;12.630;2022-09-30T05:03:02;4.40;;;4.30;;
26106;SDS011;13866;50.748;12.630;2022-09-30T05:05:28;4.57;;;4.37;;
26106;SDS011;13866;50.748;12.630;2022-09-30T05:07:58;5.13;;;5.03;;
26106;SDS011;13866;50.748;12.630;2022-09-30T05:10:25;23.53;;;4.90;;
26106;SDS011;13866;50.748;12.630;2022-09-30T05:12:51;5.00;;;4.67;;
26106;SDS011;13866;50.748;12.630;2022-09-30T05:15:17;3.53;;;3.53;;
26106;SDS011;13866;50.748;12.630;2022-09-30T05:17:42;4.80;;;4.63;;
26106;SDS011;13866;50.748;12.630;2022-09-30T05:20:08;5.07;;;4.50;;
26106;SDS011;13866;50.748;12.630;2022-09-30T05:22:35;5.70;;;5.50;;
26106;SDS011;13866;50.748;12.630;2022-09-30T05:25:00;5.70;;;5.50;;
26106;SDS011;13866;50.748;12.630;2022-09-30T05:27:28;5.00;;;4.80;;
26106;SDS011;13866;50.748;12.630;2022-09-30T05:29:54;4.20;;;4.00;;
26106;SDS011;13866;50.748;12.630;2022-09-30T05:32:19;4.60;;;3.60;;
26106;SDS011;13866;50.748;12.630;2022-09-30T05:34:46;3.97;;;3.97;;
26106;SDS011;13866;50.748;12.630;2022-09-30T05:37:11;5.63;;;4.63;;
26106;SDS011;13866;50.748;12.630;2022-09-30T05:39:37;9.53;;;8.73;;
26106;SDS011;13866;50.748;12.630;2022-09-30T05:42:03;8.43;;;6.70;;
26106;SDS011;13866;50.748;12.630;2022-09-30T05:44:28;7.40;;;7.10;;
26106;SDS011;13866;50.748;12.630;2022-09-30T05:46:54;6.17;;;6.00;;
26106;SDS011;13866;50.748;12.630;2022-09-30T05:49:19;5.97;;;5.30;;
26106;SDS011;13866;50.748;12.630;2022-09-30T05:51:45;7.30;;;5.10;;
26106;SDS011;13866;50.748;12.630;2022-09-30T05:54:12;4.83;;;4.70;;
26106;SDS011;13866;50.748;12.630;2022-09-30T05:56:38;6.73;;;6.27;;
26106;SDS011;13866;50.748;12.630;2022-09-30T05:59:04;5.87;;;5.57;;
26106;SDS011;13866;50.748;12.630;2022-09-30T06:01:30;5.87;;;5.50;;
26106;SDS011;13866;50.748;12.630;2022-09-30T06:03:56;6.27;;;4.67;;
26106;SDS011;13866;50.748;12.630;2022-09-30T06:06:21;5.27;;;4.87;;
26106;SDS011;13866;50.748;12.630;2022-09-30T06:08:47;6.10;;;5.10;;
26106;SDS011;13866;50.748;12.630;2022-09-30T06:11:14;4.90;;;4.70;;
26106;SDS011;13866;50.748;12.630;2022-09-30T06:13:41;5.60;;;5.40;;
26106;SDS011;13866;50.748;12.630;2022-09-30T06:16:07;7.80;;;5.70;;
26106;SDS011;13866;50.748;12.630;2022-09-30T06:18:34;5.10;;;5.00;;
26106;SDS011;13866;50.748;12.630;2022-09-30T06:21:02;6.10;;;5.63;;
26106;SDS011;13866;50.748;12.630;2022-09-30T06:23:28;4.80;;;4.67;;
26106;SDS011;13866;50.748;12.630;2022-09-30T06:25:55;9.83;;;4.77;;
26106;SDS011;13866;50.748;12.630;2022-09-30T06:28:21;5.70;;;5.50;;
26106;SDS011;13866;50.748;12.630;2022-09-30T06:30:47;9.33;;;5.70;;
26106;SDS011;13866;50.748;12.630;2022-09-30T06:33:13;4.73;;;4.63;;
26106;SDS011;13866;50.748;12.630;2022-09-30T06:35:39;15.63;;;5.63;;
26106;SDS011;13866;50.748;12.630;2022-09-30T06:38:07;5.07;;;4.80;;
26106;SDS011;13866;50.748;12.630;2022-09-30T06:40:33;6.83;;;5.93;;
26106;SDS011;13866;50.748;12.630;2022-09-30T06:42:59;15.87;;;6.00;;
26106;SDS011;13866;50.748;12.630;2022-09-30T06:45:25;5.80;;;5.50;;
26106;SDS011;13866;50.748;12.630;2022-09-30T06:47:58;6.03;;;5.70;;
26106;SDS011;13866;50.748;12.630;2022-09-30T06:50:25;5.60;;;5.30;;
26106;SDS011;13866;50.748;12.630;2022-09-30T06:52:51;5.33;;;5.03;;
26106;SDS011;13866;50.748;12.630;2022-09-30T06:55:21;5.50;;;5.30;;
26106;SDS011;13866;50.748;12.630;2022-09-30T06:57:48;6.23;;;5.73;;
26106;SDS011;13866;50.748;12.630;2022-09-30T07:00:14;7.90;;;5.80;;
26106;SDS011;13866;50.748;12.630;2022-09-30T07:02:41;6.10;;;5.80;;
26106;SDS011;13866;50.748;12.630;2022-09-30T07:05:07;6.90;;;6.27;;
26106;SDS011;13866;50.748;12.630;2022-09-30T07:07:33;6.13;;;5.70;;
26106;SDS011;13866;50.748;12.630;2022-09-30T07:09:59;5.70;;;5.33;;
26106;SDS011;13866;50.748;12.630;2022-09-30T07:12:25;4.90;;;4.50;;
26106;SDS011;13866;50.748;12.630;2022-09-30T07:14:51;8.13;;;4.53;;
26106;SDS011;13866;50.748;12.630;2022-09-30T07:17:17;4.37;;;3.70;;
26106;SDS011;13866;50.748;12.630;2022-09-30T07:19:42;4.40;;;4.20;;
26106;SDS011;13866;50.748;12.630;2022-09-30T07:22:08;5.07;;;4.90;;
26106;SDS011;13866;50.748;12.630;2022-09-30T07:25:00;3.70;;;3.70;;
26106;SDS011;13866;50.748;12.630;2022-09-30T07:27:28;5.47;;;4.93;;
26106;SDS011;13866;50.748;12.630;2022-09-30T07:29:56;4.63;;;4.20;;
26106;SDS011;13866;50.748;12.630;2022-09-30T07:32:23;4.37;;;4.27;;
26106;SDS011;13866;50.748;12.630;2022-09-30T07:34:48;4.73;;;4.53;;
26106;SDS011;13866;50.748;12.630;2022-09-30T07:37:15;5.23;;;4.90;;
26106;SDS011;13866;50.748;12.630;2022-09-30T07:39:43;3.60;;;3.50;;
26106;SDS011;13866;50.748;12.630;2022-09-30T07:42:10;4.83;;;4.43;;
26106;SDS011;13866;50.748;12.630;2022-09-30T07:44:37;5.37;;;5.07;;
26106;SDS011;13866;50.748;12.630;2022-09-30T07:47:06;5.33;;;4.90;;
26106;SDS011;13866;50.748;12.630;2022-09-30T07:49:33;5.73;;;4.77;;
26106;SDS011;13866;50.748;12.630;2022-09-30T07:51:59;5.17;;;4.77;;
26106;SDS011;13866;50.748;12.630;2022-09-30T07:54:26;5.00;;;3.87;;
26106;SDS011;13866;50.748;12.630;2022-09-30T07:56:54;4.00;;;3.90;;
26106;SDS011;13866;50.748;12.630;2022-09-30T07:59:20;4.43;;;4.13;;
26106;SDS011;13866;50.748;12.630;2022-09-30T08:01:46;3.90;;;3.63;;
26106;SDS011;13866;50.748;12.630;2022-09-30T08:04:12;5.00;;;4.90;;
26106;SDS011;13866;50.748;12.630;2022-09-30T08:06:40;4.57;;;4.47;;
26106;SDS011;13866;50.748;12.630;2022-09-30T08:09:09;6.00;;;5.80;;
26106;SDS011;13866;50.748;12.630;2022-09-30T08:11:35;6.20;;;5.60;;
26106;SDS011;13866;50.748;12.630;2022-09-30T08:14:02;4.80;;;4.60;;
26106;SDS011;13866;50.748;12.630;2022-09-30T08:16:27;4.13;;;4.00;;
26106;SDS011;13866;50.748;12.630;2022-09-30T08:18:53;4.67;;;4.30;;
26106;SDS011;13866;50.748;12.630;2022-09-30T08:21:26;6.33;;;4.83;;
26106;SDS011;13866;50.748;12.630;2022-09-30T08:23:52;5.07;;;4.97;;
26106;SDS011;13866;50.748;12.630;2022-09-30T08:26:18;5.90;;;5.30;;
26106;SDS011;13866;50.748;12.630;2022-09-30T08:28:45;5.30;;;4.90;;
26106;SDS011;13866;50.748;12.630;2022-09-30T08:31:12;4.80;;;4.67;;
26106;SDS011;13866;50.748;12.630;2022-09-30T08:33:40;3.83;;;3.73;;
26106;SDS011;13866;50.748;12.630;2022-09-30T08:36:10;3.43;;;3.30;;
26106;SDS011;13866;50.748;12.630;2022-09-30T08:38:43;4.80;;;4.50;;
26106;SDS011;13866;50.748;12.630;2022-09-30T08:41:18;3.87;;;3.63;;
26106;SDS011;13866;50.748;12.630;2022-09-30T08:47:11;3.97;;;3.90;;
26106;SDS011;13866;50.748;12.630;2022-09-30T08:52:39;3.10;;;3.00;;
26106;SDS011;13866;50.748;12.630;2022-09-30T08:55:09;4.73;;;3.40;;
26106;SDS011;13866;50.748;12.630;2022-09-30T08:57:50;3.33;;;3.33;;
26106;SDS011;13866;50.748;12.630;2022-09-30T09:00:17;3.40;;;3.30;;
26106;SDS011;13866;50.748;12.630;2022-09-30T09:02:50;4.77;;;3.20;;
26106;SDS011;13866;50.748;12.630;2022-09-30T09:05:44;3.80;;;3.70;;
26106;SDS011;13866;50.748;12.630;2022-09-30T09:08:16;4.17;;;3.80;;
26106;SDS011;13866;50.748;12.630;2022-09-30T09:10:53;3.70;;;3.60;;
26106;SDS011;13866;50.748;12.630;2022-09-30T09:19:19;3.77;;;3.47;;
26106;SDS011;13866;50.748;12.630;2022-09-30T09:21:54;4.30;;;4.00;;
26106;SDS011;13866;50.748;12.630;2022-09-30T09:24:24;4.40;;;4.20;;
26106;SDS011;13866;50.748;12.630;2022-09-30T09:27:02;4.07;;;3.87;;
26106;SDS011;13866;50.748;12.630;2022-09-30T09:32:25;4.40;;;4.17;;
26106;SDS011;13866;50.748;12.630;2022-09-30T09:34:54;3.83;;;3.73;;
26106;SDS011;13866;50.748;12.630;2022-09-30T09:40:17;2.90;;;2.90;;
26106;SDS011;13866;50.748;12.630;2022-09-30T09:48:10;2.90;;;2.90;;
26106;SDS011;13866;50.748;12.630;2022-09-30T09:55:44;3.33;;;3.23;;
26106;SDS011;13866;50.748;12.630;2022-09-30T09:58:13;3.20;;;3.10;;
26106;SDS011;13866;50.748;12.630;2022-09-30T10:00:40;3.50;;;3.20;;
26106;SDS011;13866;50.748;12.630;2022-09-30T10:05:59;6.10;;;4.17;;
26106;SDS011;13866;50.748;12.630;2022-09-30T10:08:25;3.10;;;3.10;;
26106;SDS011;13866;50.748;12.630;2022-09-30T10:11:03;2.97;;;2.83;;
26106;SDS011;13866;50.748;12.630;2022-09-30T10:13:40;3.43;;;3.23;;
26106;SDS011;13866;50.748;12.630;2022-09-30T10:16:08;4.97;;;3.50;;
26106;SDS011;13866;50.748;12.630;2022-09-30T10:18:59;3.23;;;3.23;;
26106;SDS011;13866;50.748;12.630;2022-09-30T10:21:26;4.17;;;4.07;;
26106;SDS011;13866;50.748;12.630;2022-09-30T10:23:52;3.43;;;3.30;;
26106;SDS011;13866;50.748;12.630;2022-09-30T10:26:19;4.40;;;3.00;;
26106;SDS011;13866;50.748;12.630;2022-09-30T10:29:00;4.83;;;3.53;;
26106;SDS011;13866;50.748;12.630;2022-09-30T10:31:30;3.80;;;3.50;;
26106;SDS011;13866;50.748;12.630;2022-09-30T10:36:52;5.00;;;2.83;;
26106;SDS011;13866;50.748;12.630;2022-09-30T10:39:26;2.63;;;2.63;;
26106;SDS011;13866;50.748;12.630;2022-09-30T10:44:58;16.23;;;2.60;;
26106;SDS011;13866;50.748;12.630;2022-09-30T10:47:27;5.60;;;3.33;;
26106;SDS011;13866;50.748;12.630;2022-09-30T10:49:55;2.93;;;2.83;;
26106;SDS011;13866;50.748;12.630;2022-09-30T10:52:25;3.40;;;3.13;;
26106;SDS011;13866;50.748;12.630;2022-09-30T10:54:54;4.37;;;3.90;;
26106;SDS011;13866;50.748;12.630;2022-09-30T10:57:36;3.10;;;3.00;;
26106;SDS011;13866;50.748;12.630;2022-09-30T11:00:23;3.30;;;3.20;;
26106;SDS011;13866;50.748;12.630;2022-09-30T11:05:41;3.37;;;3.17;;
26106;SDS011;13866;50.748;12.630;2022-09-30T11:11:10;3.83;;;3.63;;
26106;SDS011;13866;50.748;12.630;2022-09-30T11:13:40;2.80;;;2.70;;
26106;SDS011;13866;50.748;12.630;2022-09-30T11:16:27;2.50;;;2.40;;
26106;SDS011;13866;50.748;12.630;2022-09-30T11:19:18;2.80;;;2.60;;
26106;SDS011;13866;50.748;12.630;2022-09-30T11:22:03;2.37;;;2.37;;
26106;SDS011;13866;50.748;12.630;2022-09-30T11:24:56;2.13;;;2.13;;
26106;SDS011;13866;50.748;12.630;2022-09-30T11:27:28;5.80;;;3.03;;
26106;SDS011;13866;50.748;12.630;2022-09-30T11:30:12;2.93;;;2.83;;
26106;SDS011;13866;50.748;12.630;2022-09-30T11:38:11;2.67;;;2.57;;
26106;SDS011;13866;50.748;12.630;2022-09-30T11:52:13;2.33;;;2.33;;
26106;SDS011;13866;50.748;12.630;2022-09-30T11:54:59;1.70;;;1.60;;
26106;SDS011;13866;50.748;12.630;2022-09-30T11:57:59;2.40;;;2.30;;
26106;SDS011;13866;50.748;12.630;2022-09-30T12:00:40;2.90;;;2.80;;
26106;SDS011;13866;50.748;12.630;2022-09-30T12:03:12;2.17;;;2.17;;
26106;SDS011;13866;50.748;12.630;2022-09-30T12:05:47;5.60;;;2.90;;
26106;SDS011;13866;50.748;12.630;2022-09-30T12:08:32;2.10;;;2.10;;
26106;SDS011;13866;50.748;12.630;2022-09-30T12:11:43;4.20;;;2.90;;
26106;SDS011;13866;50.748;12.630;2022-09-30T12:14:49;2.13;;;2.10;;
26106;SDS011;13866;50.748;12.630;2022-09-30T12:17:17;2.50;;;2.50;;
26106;SDS011;13866;50.748;12.630;2022-09-30T12:19:51;7.10;;;3.20;;
26106;SDS011;13866;50.748;12.630;2022-09-30T12:22:26;2.27;;;2.20;;
26106;SDS011;13866;50.748;12.630;2022-09-30T12:24:55;3.33;;;1.80;;
26106;SDS011;13866;50.748;12.630;2022-09-30T12:27:23;2.80;;;1.37;;
26106;SDS011;13866;50.748;12.630;2022-09-30T12:30:13;1.73;;;1.73;;
26106;SDS011;13866;50.748;12.630;2022-09-30T12:32:57;3.30;;;1.40;;
26106;SDS011;13866;50.748;12.630;2022-09-30T12:41:39;4.10;;;1.90;;
26106;SDS011;13866;50.748;12.630;2022-09-30T12:44:41;6.67;;;1.90;;
26106;SDS011;13866;50.748;12.630;2022-09-30T12:47:33;1.83;;;1.80;;
26106;SDS011;13866;50.748;12.630;2022-09-30T12:50:10;1.77;;;1.67;;
26106;SDS011;13866;50.748;12.630;2022-09-30T12:52:38;1.70;;;1.60;;
26106;SDS011;13866;50.748;12.630;2022-09-30T12:55:18;1.63;;;1.63;;
26106;SDS011;13866;50.748;12.630;2022-09-30T12:57:49;2.00;;;1.97;;
26106;SDS011;13866;50.748;12.630;2022-09-30T13:00:17;1.83;;;1.83;;
26106;SDS011;13866;50.748;12.630;2022-09-30T13:02:46;1.90;;;1.80;;
26106;SDS011;13866;50.748;12.630;2022-09-30T13:10:33;3.80;;;1.57;;
26106;SDS011;13866;50.748;12.630;2022-09-30T13:20:54;1.60;;;1.50;;
26106;SDS011;13866;50.748;12.630;2022-09-30T13:23:40;1.30;;;1.30;;
26106;SDS011;13866;50.748;12.630;2022-09-30T13:26:54;1.67;;;1.57;;
26106;SDS011;13866;50.748;12.630;2022-09-30T13:31:28;2.33;;;2.33;;
26106;SDS011;13866;50.748;12.630;2022-09-30T13:39:06;19.17;;;1.60;;
26106;SDS011;13866;50.748;12.630;2022-09-30T13:41:41;1.60;;;1.60;;
26106;SDS011;13866;50.748;12.630;2022-09-30T13:44:13;1.53;;;1.53;;
26106;SDS011;13866;50.748;12.630;2022-09-30T13:46:47;5.43;;;1.37;;
26106;SDS011;13866;50.748;12.630;2022-09-30T13:49:25;6.33;;;1.77;;
26106;SDS011;13866;50.748;12.630;2022-09-30T13:52:27;1.73;;;1.63;;
26106;SDS011;13866;50.748;12.630;2022-09-30T13:54:57;1.30;;;1.30;;
26106;SDS011;13866;50.748;12.630;2022-09-30T13:57:31;7.13;;;1.77;;
26106;SDS011;13866;50.748;12.630;2022-09-30T14:00:11;3.50;;;2.17;;
26106;SDS011;13866;50.748;12.630;2022-09-30T14:03:25;1.07;;;1.07;;
26106;SDS011;13866;50.748;12.630;2022-09-30T14:09:14;1.93;;;1.90;;
26106;SDS011;13866;50.748;12.630;2022-09-30T14:14:52;1.67;;;1.60;;
26106;SDS011;13866;50.748;12.630;2022-09-30T14:17:36;1.50;;;1.50;;
26106;SDS011;13866;50.748;12.630;2022-09-30T14:23:11;9.07;;;1.97;;
26106;SDS011;13866;50.748;12.630;2022-09-30T14:25:39;2.10;;;1.30;;
26106;SDS011;13866;50.748;12.630;2022-09-30T14:28:13;1.30;;;1.30;;
26106;SDS011;13866;50.748;12.630;2022-09-30T14:30:43;1.40;;;1.40;;
26106;SDS011;13866;50.748;12.630;2022-09-30T14:33:29;1.40;;;1.40;;
26106;SDS011;13866;50.748;12.630;2022-09-30T14:35:55;1.80;;;1.80;;
26106;SDS011;13866;50.748;12.630;2022-09-30T14:38:26;1.77;;;1.67;;
26106;SDS011;13866;50.748;12.630;2022-09-30T14:40:57;1.83;;;1.73;;
26106;SDS011;13866;50.748;12.630;2022-09-30T14:43:30;2.53;;;1.17;;
26106;SDS011;13866;50.748;12.630;2022-09-30T14:46:01;1.63;;;1.50;;
26106;SDS011;13866;50.748;12.630;2022-09-30T14:48:34;1.10;;;1.10;;
26106;SDS011;13866;50.748;12.630;2022-09-30T14:51:03;1.70;;;1.60;;
26106;SDS011;13866;50.748;12.630;2022-09-30T14:53:38;1.23;;;1.23;;
26106;SDS011;13866;50.748;12.630;2022-09-30T14:56:17;1.77;;;1.53;;
26106;SDS011;13866;50.748;12.630;2022-09-30T14:58:46;10.83;;;1.60;;
26106;SDS011;13866;50.748;12.630;2022-09-30T15:01:16;1.53;;;1.43;;
26106;SDS011;13866;50.748;12.630;2022-09-30T15:03:50;1.77;;;1.77;;
26106;SDS011;13866;50.748;12.630;2022-09-30T15:06:23;1.70;;;1.70;;
26106;SDS011;13866;50.748;12.630;2022-09-30T15:08:59;1.80;;;1.70;;
26106;SDS011;13866;50.748;12.630;2022-09-30T15:11:28;2.30;;;2.20;;
26106;SDS011;13866;50.748;12.630;2022-09-30T15:13:59;1.50;;;1.50;;
26106;SDS011;13866;50.748;12.630;2022-09-30T15:16:31;1.47;;;1.43;;
26106;SDS011;13866;50.748;12.630;2022-09-30T15:18:58;1.50;;;1.50;;
26106;SDS011;13866;50.748;12.630;2022-09-30T15:21:25;1.60;;;1.60;;
26106;SDS011;13866;50.748;12.630;2022-09-30T15:23:54;2.00;;;1.90;;
26106;SDS011;13866;50.748;12.630;2022-09-30T15:26:23;2.30;;;1.90;;
26106;SDS011;13866;50.748;12.630;2022-09-30T15:28:50;1.67;;;1.67;;
26106;SDS011;13866;50.748;12.630;2022-09-30T15:31:22;2.10;;;1.97;;
26106;SDS011;13866;50.748;12.630;2022-09-30T15:34:10;1.60;;;1.60;;
26106;SDS011;13866;50.748;12.630;2022-09-30T15:36:39;2.87;;;1.90;;
26106;SDS011;13866;50.748;12.630;2022-09-30T15:39:11;15.27;;;2.10;;
26106;SDS011;13866;50.748;12.630;2022-09-30T15:41:45;1.97;;;1.97;;
26106;SDS011;13866;50.748;12.630;2022-09-30T15:44:16;1.83;;;1.83;;
26106;SDS011;13866;50.748;12.630;2022-09-30T15:47:00;1.30;;;1.30;;
26106;SDS011;13866;50.748;12.630;2022-09-30T15:54:52;1.40;;;1.40;;
26106;SDS011;13866;50.748;12.630;2022-09-30T16:00:04;2.43;;;2.23;;
26106;SDS011;13866;50.748;12.630;2022-09-30T16:02:33;3.97;;;2.20;;
26106;SDS011;13866;50.748;12.630;2022-09-30T16:04:59;2.37;;;2.20;;
26106;SDS011;13866;50.748;12.630;2022-09-30T16:07:26;3.40;;;3.30;;
26106;SDS011;13866;50.748;12.630;2022-09-30T16:09:54;4.60;;;4.20;;
26106;SDS011;13866;50.748;12.630;2022-09-30T16:12:23;4.50;;;4.30;;
26106;SDS011;13866;50.748;12.630;2022-09-30T16:14:54;13.47;;;3.87;;
26106;SDS011;13866;50.748;12.630;2022-09-30T16:20:03;23.43;;;3.57;;
26106;SDS011;13866;50.748;12.630;2022-09-30T16:22:46;7.17;;;6.87;;
26106;SDS011;13866;50.748;12.630;2022-09-30T16:25:25;10.97;;;10.10;;
26106;SDS011;13866;50.748;12.630;2022-09-30T16:27:55;6.70;;;6.37;;
26106;SDS011;13866;50.748;12.630;2022-09-30T16:30:26;13.77;;;8.07;;
26106;SDS011;13866;50.748;12.630;2022-09-30T16:32:57;11.07;;;10.20;;
26106;SDS011;13866;50.748;12.630;2022-09-30T16:35:26;6.33;;;5.80;;
26106;SDS011;13866;50.748;12.630;2022-09-30T16:37:59;5.00;;;4.90;;
26106;SDS011;13866;50.748;12.630;2022-09-30T16:40:27;4.20;;;4.10;;
26106;SDS011;13866;50.748;12.630;2022-09-30T16:42:54;3.43;;;3.23;;
26106;SDS011;13866;50.748;12.630;2022-09-30T16:45:22;7.00;;;4.00;;
26106;SDS011;13866;50.748;12.630;2022-09-30T16:47:48;11.27;;;4.83;;
26106;SDS011;13866;50.748;12.630;2022-09-30T16:50:31;3.87;;;3.70;;
26106;SDS011;13866;50.748;12.630;2022-09-30T16:53:05;3.80;;;3.50;;
26106;SDS011;13866;50.748;12.630;2022-09-30T16:55:31;3.20;;;3.20;;
26106;SDS011;13866;50.748;12.630;2022-09-30T16:57:56;4.80;;;4.30;;
26106;SDS011;13866;50.748;12.630;2022-09-30T17:00:23;3.77;;;3.57;;
26106;SDS011;13866;50.748;12.630;2022-09-30T17:02:50;4.10;;;3.10;;
26106;SDS011;13866;50.748;12.630;2022-09-30T17:05:17;3.03;;;3.03;;
26106;SDS011;13866;50.748;12.630;2022-09-30T17:07:49;3.03;;;2.97;;
26106;SDS011;13866;50.748;12.630;2022-09-30T17:10:23;3.40;;;3.30;;
26106;SDS011;13866;50.748;12.630;2022-09-30T17:12:52;4.20;;;4.00;;
26106;SDS011;13866;50.748;12.630;2022-09-30T17:15:18;6.33;;;4.30;;
26106;SDS011;13866;50.748;12.630;2022-09-30T17:17:44;5.20;;;4.80;;
26106;SDS011;13866;50.748;12.630;2022-09-30T17:20:10;5.17;;;4.63;;
26106;SDS011;13866;50.748;12.630;2022-09-30T17:22:36;4.60;;;4.43;;
26106;SDS011;13866;50.748;12.630;2022-09-30T17:25:02;4.30;;;4.00;;
26106;SDS011;13866;50.748;12.630;2022-09-30T17:27:28;5.03;;;4.63;;